.
WxDataArchive / Data Records for 2016-06-19
2016-06-18 June 2016 2016-06-20

Data Records for Sunday, 19 June 2016

Time	Temp	Chill	HIndex	Humid	Dewpt	 Wind 	HiWind	WindDir	Rain 	Barom
-----	----	-----	------	-----	-----	------	------	-------	-----	-----
00:00	70.1	70.1	70.1	74	61.4	0	1	68	0.00	30.193 
00:05	70.1	70.1	70.1	73	61.0	0	1	68	0.00	30.193 
00:10	70.1	70.1	70.1	73	61.0	0	0	---	0.00	30.193 
00:15	69.9	69.9	69.9	73	60.8	0	0	---	0.00	30.189 
00:20	69.9	69.9	69.9	73	60.8	0	0	---	0.00	30.189 
00:25	69.8	69.8	69.8	74	61.1	0	0	---	0.00	30.189 
00:30	69.8	69.8	69.8	74	61.1	0	0	---	0.00	30.191 
00:35	69.6	69.6	69.6	75	61.3	0	0	---	0.00	30.191 
00:40	69.4	69.4	69.4	75	61.1	0	0	---	0.00	30.191 
00:45	69.3	69.3	69.3	76	61.4	0	0	---	0.00	30.193 
00:50	69.1	69.1	69.1	77	61.6	0	0	---	0.00	30.193 
00:55	68.9	68.9	68.9	77	61.4	0	0	---	0.00	30.193 
01:00	68.6	68.6	68.6	76	60.7	0	0	---	0.00	30.191 
01:05	68.4	68.4	68.4	75	60.2	0	0	---	0.00	30.191 
01:10	68.4	68.4	68.4	75	60.2	0	0	---	0.00	30.191 
01:15	68.4	----	68.4	75	60.2	---	0	---	0.00	30.194 
01:20	68.4	----	68.4	75	60.2	---	0	---	0.00	30.194 
01:25	----	----	----	---	----	---	0	---	0.00	30.194 
01:30	----	----	----	---	----	---	0	---	0.00	30.181 
01:35	67.6	67.6	67.6	75	59.4	0	0	---	0.00	30.181 
01:40	67.6	67.6	67.6	76	59.8	0	0	---	0.00	30.181 
01:45	67.4	67.4	67.4	76	59.6	0	0	---	0.00	30.194 
01:50	67.3	67.3	67.3	77	59.8	0	0	---	0.00	30.194 
01:55	67.1	67.1	67.1	77	59.6	0	0	---	0.00	30.194 
02:00	66.9	66.9	66.9	77	59.4	0	0	---	0.00	30.195 
02:05	66.8	66.8	66.8	77	59.3	0	0	---	0.00	30.195 
02:10	66.6	66.6	66.6	77	59.2	0	0	---	0.00	30.195 
02:15	66.4	66.4	66.4	78	59.3	0	0	---	0.00	30.196 
02:20	66.3	66.3	66.3	78	59.2	0	0	---	0.00	30.196 
02:25	66.0	66.0	66.0	78	58.9	0	0	---	0.00	30.196 
02:30	65.8	65.8	65.8	79	59.1	0	0	---	0.00	30.198 
02:35	65.6	65.6	65.6	79	58.9	0	0	---	0.00	30.198 
02:40	65.6	65.6	65.6	80	59.3	0	0	---	0.00	30.198 
02:45	65.5	65.5	65.5	80	59.2	0	0	---	0.00	30.198 
02:50	65.3	65.3	65.3	81	59.3	0	0	---	0.00	30.198 
02:55	65.2	65.2	65.2	81	59.2	0	0	---	0.00	30.198 
03:00	65.0	65.0	65.0	81	59.0	0	0	---	0.00	30.197 
03:05	64.8	64.8	64.8	81	58.8	0	0	---	0.00	30.197 
03:10	64.8	64.8	64.8	82	59.2	0	0	---	0.00	30.197 
03:15	64.7	64.7	64.7	82	59.1	0	0	---	0.00	30.199 
03:20	64.7	64.7	64.7	83	59.4	0	0	---	0.00	30.199 
03:25	64.5	64.5	64.5	83	59.2	0	0	---	0.00	30.199 
03:30	64.5	64.5	64.5	83	59.2	0	0	---	0.00	30.198 
03:35	64.5	64.5	64.5	84	59.6	0	0	---	0.00	30.198 
03:40	64.5	64.5	64.5	84	59.6	0	0	---	0.00	30.198 
03:45	64.3	64.3	64.3	84	59.4	0	0	---	0.00	30.198 
03:50	64.3	64.3	64.3	84	59.4	0	0	---	0.00	30.198 
03:55	64.3	64.3	64.3	84	59.4	0	0	---	0.00	30.198 
04:00	64.2	64.2	64.2	85	59.6	0	0	---	0.00	30.201 
04:05	64.2	64.2	64.2	85	59.6	0	0	---	0.00	30.201 
04:10	64.2	64.2	64.2	85	59.6	0	0	---	0.00	30.201 
04:15	64.2	64.2	64.2	85	59.6	0	0	---	0.00	30.204 
04:20	64.0	64.0	64.0	85	59.4	0	0	---	0.00	30.204 
04:25	63.9	63.9	63.9	85	59.3	0	0	---	0.00	30.204 
04:30	63.9	63.9	63.9	85	59.3	0	0	---	0.00	30.201 
04:35	63.7	63.7	63.7	85	59.1	0	0	---	0.00	30.201 
04:40	63.5	63.5	63.5	85	58.9	0	0	---	0.00	30.201 
04:45	63.4	63.4	63.4	85	58.8	0	0	---	0.00	30.202 
04:50	63.4	63.4	63.4	85	58.8	0	0	---	0.00	30.202 
04:55	63.2	63.2	63.2	85	58.6	0	0	---	0.00	30.202 
05:00	63.2	63.2	63.2	85	58.6	0	0	---	0.00	30.202 
05:05	63.2	63.2	63.2	86	58.9	0	0	---	0.00	30.202 
05:10	63.2	63.2	63.2	86	58.9	0	0	---	0.00	30.202 
05:15	63.1	63.1	63.1	86	58.8	0	0	---	0.00	30.204 
05:20	63.1	63.1	63.1	86	58.8	0	0	---	0.00	30.204 
05:25	63.1	63.1	63.1	86	58.8	0	0	---	0.00	30.204 
05:30	62.9	62.9	62.9	86	58.6	0	0	---	0.00	30.205 
05:35	62.9	62.9	62.9	86	58.6	0	0	---	0.00	30.205 
05:40	62.9	62.9	62.9	86	58.6	0	0	---	0.00	30.205 
05:45	62.7	62.7	62.7	86	58.4	0	0	---	0.00	30.201 
05:50	62.7	62.7	62.7	87	58.8	0	0	---	0.00	30.201 
05:55	62.9	62.9	62.9	87	59.0	0	0	---	0.00	30.201 
06:00	62.9	62.9	62.9	87	59.0	0	0	---	0.00	30.205 
06:05	62.9	62.9	62.9	87	59.0	0	0	---	0.00	30.205 
06:10	62.7	62.7	62.7	87	58.8	0	0	---	0.00	30.205 
06:15	62.7	62.7	62.7	87	58.8	0	0	---	0.00	30.205 
06:20	62.7	62.7	62.7	87	58.8	0	0	---	0.00	30.205 
06:25	62.7	62.7	62.7	87	58.8	0	0	---	0.00	30.205 
06:30	62.7	62.7	62.7	88	59.1	0	0	---	0.00	30.214 
06:35	62.7	62.7	62.7	88	59.1	0	0	---	0.00	30.214 
06:40	62.7	62.7	62.7	88	59.1	0	0	---	0.00	30.214 
06:45	62.7	62.7	62.7	88	59.1	0	0	---	0.00	30.218 
06:50	62.9	62.9	62.9	88	59.3	0	0	---	0.00	30.218 
06:55	62.9	62.9	62.9	88	59.3	0	0	---	0.00	30.218 
07:00	63.1	63.1	63.1	88	59.5	0	0	---	0.00	30.224 
07:05	63.2	63.2	63.2	88	59.6	0	0	---	0.00	30.224 
07:10	63.4	63.4	63.4	88	59.8	0	0	---	0.00	30.224 
07:15	63.7	63.7	63.7	88	60.1	0	0	---	0.00	30.230 
07:20	63.9	63.9	63.9	88	60.3	0	0	---	0.00	30.230 
07:25	64.2	64.2	64.2	88	60.6	0	0	---	0.00	30.230 
07:30	64.3	64.3	64.3	88	60.7	0	0	---	0.00	30.233 
07:35	64.3	----	64.3	88	60.7	---	0	---	0.00	30.233 
07:40	----	----	----	---	----	---	0	---	0.00	30.233 
07:45	----	----	----	---	----	---	0	---	0.00	30.222 
07:50	67.1	67.1	67.1	81	61.1	0	0	---	0.00	30.222 
07:55	67.9	67.9	67.9	77	60.4	0	0	---	0.00	30.222 
08:00	69.4	69.4	69.4	72	60.0	0	0	---	0.00	30.242 
08:05	71.1	71.1	71.1	67	59.6	0	0	---	0.00	30.242 
08:10	72.3	72.3	72.3	65	59.9	0	0	---	0.00	30.242 
08:15	73.2	73.2	73.2	65	60.7	0	0	---	0.00	30.243 
08:20	74.0	74.0	74.0	62	60.1	0	0	---	0.00	30.243 
08:25	75.3	75.3	77.6	57	59.0	0	1	68	0.00	30.243 
08:30	76.1	76.1	78.1	55	58.7	0	0	---	0.00	30.244 
08:35	77.2	77.2	78.8	53	58.7	0	1	68	0.00	30.244 
08:40	78.1	78.1	79.4	51	58.5	0	1	68	0.00	30.244 
08:45	78.6	78.6	79.7	51	58.9	0	1	68	0.00	30.242 
08:50	79.2	79.2	80.1	49	58.4	0	1	68	0.00	30.242 
08:55	79.8	79.8	80.5	48	58.3	0	1	68	0.00	30.242 
09:00	80.1	80.1	80.6	47	58.0	0	0	---	0.00	30.232 
09:05	80.7	80.7	81.0	46	58.0	0	1	68	0.00	30.232 
09:10	80.9	80.9	81.2	46	58.2	0	1	68	0.00	30.232 
09:15	81.2	81.2	81.8	49	60.2	0	1	68	0.00	30.235 
09:20	81.8	81.8	82.3	48	60.2	0	1	68	0.00	30.235 
09:25	82.0	82.0	82.3	47	59.8	0	1	68	0.00	30.235 
09:30	82.6	82.6	82.5	44	58.4	0	1	68	0.00	30.237 
09:35	83.0	83.0	83.1	45	59.4	0	2	68	0.00	30.237 
09:40	82.8	82.8	82.9	45	59.3	0	2	68	0.00	30.237 
09:45	83.0	83.0	83.1	45	59.4	0	2	68	0.00	30.232 
09:50	82.8	82.8	82.4	42	57.3	0	2	68	0.00	30.232 
09:55	82.6	82.6	82.4	43	57.8	0	2	68	0.00	30.232 
10:00	82.6	82.6	82.5	44	58.4	0	2	68	0.00	30.226 
10:05	82.8	82.8	82.7	44	58.6	0	2	68	0.00	30.226 
10:10	83.2	83.2	82.8	42	57.7	0	3	112	0.00	30.226 
10:15	83.6	83.6	83.4	43	58.7	0	2	112	0.00	30.226 
10:20	83.8	83.8	83.6	43	58.9	0	2	112	0.00	30.226 
10:25	83.4	83.4	83.3	44	59.2	0	3	225	0.00	30.226 
10:30	83.4	83.4	83.3	44	59.2	0	1	225	0.00	30.227 
10:35	82.8	82.8	82.3	41	56.7	1	2	225	0.00	30.227 
10:40	82.8	82.8	82.3	41	56.7	0	1	225	0.00	30.227 
10:45	83.2	83.2	82.5	40	56.3	1	3	225	0.00	30.218 
10:50	83.6	83.6	83.2	42	58.0	0	2	90	0.00	30.218 
10:55	83.8	83.8	83.1	40	56.9	1	5	292	0.00	30.218 
11:00	83.6	83.6	83.0	41	57.4	1	2	112	0.00	30.221 
11:05	83.6	83.6	82.9	40	56.7	0	2	112	0.00	30.221 
11:10	83.8	83.8	82.9	39	56.2	1	2	112	0.00	30.221 
11:15	84.0	84.0	82.7	36	54.1	1	4	112	0.00	30.224 
11:20	84.1	84.1	82.9	37	55.0	0	1	112	0.00	30.224 
11:25	84.3	84.3	83.1	37	55.2	1	4	248	0.00	30.224 
11:30	84.7	84.7	83.2	35	54.0	0	2	248	0.00	30.226 
11:35	85.1	85.1	83.5	34	53.5	0	2	248	0.00	30.226 
11:40	85.1	85.1	83.2	32	51.9	1	3	248	0.00	30.226 
11:45	85.1	85.1	83.2	32	51.9	1	4	90	0.00	30.229 
11:50	85.3	85.3	83.6	34	53.7	0	2	90	0.00	30.229 
11:55	85.3	85.3	83.5	33	52.9	1	3	90	0.00	30.229 
12:00	85.3	85.3	83.5	33	52.9	1	3	68	0.00	30.228 
12:05	85.1	85.1	83.3	33	52.7	1	5	248	0.00	30.228 
12:10	85.3	85.3	83.8	35	54.5	1	2	248	0.00	30.228 
12:15	85.5	85.5	83.8	34	53.9	1	3	90	0.00	30.222 
12:20	85.7	85.7	84.0	34	54.1	1	3	90	0.00	30.222 
12:25	85.5	85.5	83.8	34	53.9	1	4	68	0.00	30.222 
12:30	85.1	85.1	83.6	35	54.3	1	5	248	0.00	30.213 
12:35	85.3	85.3	83.5	33	52.9	1	5	90	0.00	30.213 
12:40	85.5	85.5	83.7	33	53.1	1	5	90	0.00	30.213 
12:45	85.1	85.1	83.3	33	52.7	2	5	270	0.00	30.212 
12:50	84.7	84.7	83.2	35	54.0	1	5	270	0.00	30.212 
12:55	85.1	85.1	83.9	37	55.9	1	3	270	0.00	30.212 
13:00	85.9	85.9	84.2	34	54.2	1	2	270	0.00	30.211 
13:05	85.9	85.9	84.4	35	55.0	1	3	270	0.00	30.211 
13:10	85.5	85.5	84.0	35	54.7	2	4	225	0.00	30.211 
13:15	85.5	85.5	83.7	33	53.1	1	3	225	0.00	30.205 
13:20	85.9	85.9	84.7	37	56.6	0	2	225	0.00	30.205 
13:25	86.3	86.3	84.8	35	55.4	1	3	270	0.00	30.205 
13:30	86.1	86.1	84.4	34	54.4	1	4	270	0.00	30.201 
13:35	86.5	86.5	85.0	35	55.6	0	1	270	0.00	30.201 
13:40	86.7	86.7	85.1	34	54.9	1	3	270	0.00	30.201 
13:45	86.5	86.5	84.7	33	53.9	1	4	270	0.00	30.197 
13:50	86.7	86.7	85.2	35	55.7	1	3	270	0.00	30.197 
13:55	87.2	87.2	85.6	34	55.4	0	2	270	0.00	30.197 
14:00	87.6	87.6	85.7	32	54.1	0	1	270	0.00	30.188 
14:05	87.6	87.6	85.7	32	54.1	1	2	270	0.00	30.188 
14:10	87.6	87.6	85.7	32	54.1	1	4	270	0.00	30.188 
14:15	87.6	87.6	85.5	31	53.2	2	6	248	0.00	30.186 
14:20	87.2	87.2	85.4	33	54.6	2	4	248	0.00	30.186 
14:25	86.7	86.7	84.6	31	52.4	1	3	248	0.00	30.186 
14:30	86.5	86.5	84.5	32	53.1	2	4	248	0.00	30.181 
14:35	86.5	86.5	84.4	31	52.2	2	4	248	0.00	30.181 
14:40	86.7	86.7	84.9	33	54.1	2	4	270	0.00	30.181 
14:45	86.7	86.7	84.6	31	52.4	3	5	270	0.00	30.176 
14:50	86.5	86.5	84.1	29	50.4	3	5	248	0.00	30.176 
14:55	86.7	86.7	85.1	34	54.9	1	4	270	0.00	30.176 
15:00	87.4	87.4	85.1	30	52.1	2	5	270	0.00	30.171 
15:05	87.8	87.8	85.4	29	51.5	0	2	270	0.00	30.171 
15:10	88.2	88.2	86.3	32	54.6	1	4	270	0.00	30.171 
15:15	88.4	88.4	86.3	31	53.9	1	4	270	0.00	30.168 
15:20	88.4	88.4	86.0	29	52.1	1	4	270	0.00	30.168 
15:25	88.4	88.4	86.5	32	54.7	1	3	270	0.00	30.168 
15:30	88.8	88.8	86.8	31	54.2	1	3	270	0.00	30.165 
15:35	88.8	88.8	86.4	29	52.4	1	4	270	0.00	30.165 
15:40	88.8	88.8	86.1	27	50.5	1	5	248	0.00	30.165 
15:45	88.6	88.6	86.0	28	51.3	2	5	270	0.00	30.164 
15:50	88.6	88.6	86.0	28	51.3	1	5	248	0.00	30.164 
15:55	88.4	88.4	85.8	28	51.1	2	5	248	0.00	30.164 
16:00	88.4	88.4	86.1	30	53.0	1	4	248	0.00	30.158 
16:05	89.0	89.0	86.8	30	53.5	1	2	248	0.00	30.158 
16:10	89.3	89.3	86.9	29	52.8	1	4	248	0.00	30.158 
16:15	89.0	89.0	86.4	28	51.6	1	4	248	0.00	30.152 
16:20	89.0	89.0	86.3	27	50.6	2	6	248	0.00	30.152 
16:25	88.8	88.8	86.2	28	51.4	2	5	248	0.00	30.152 
16:30	88.8	88.8	86.4	29	52.4	2	4	248	0.00	30.150 
16:35	88.8	88.8	86.6	30	53.3	1	4	248	0.00	30.150 
16:40	88.8	88.8	86.6	30	53.3	2	5	270	0.00	30.150 
16:45	89.3	89.3	87.6	32	55.5	1	3	270	0.00	30.147 
16:50	89.7	89.7	87.6	30	54.1	1	3	270	0.00	30.147 
16:55	89.5	89.5	87.6	31	54.8	1	3	270	0.00	30.147 
17:00	89.3	89.3	87.1	30	53.8	3	6	270	0.00	30.145 
17:05	88.8	88.8	86.8	31	54.2	2	5	248	0.00	30.145 
17:10	88.6	88.6	86.6	31	54.1	2	4	270	0.00	30.145 
17:15	88.4	88.4	86.7	33	55.6	2	4	270	0.00	30.137 
17:20	88.8	88.8	87.4	34	56.8	1	4	270	0.00	30.137 
17:25	89.0	89.0	87.2	32	55.3	1	3	270	0.00	30.137 
17:30	89.0	89.0	87.2	32	55.3	2	4	270	0.00	30.133 
17:35	89.3	89.3	87.8	33	56.4	1	4	270	0.00	30.133 
17:40	89.0	89.0	87.7	34	56.9	1	4	248	0.00	30.133 
17:45	88.6	88.6	87.2	34	56.6	2	6	248	0.00	30.131 
17:50	88.2	88.2	86.9	35	57.0	0	2	248	0.00	30.131 
17:55	88.0	88.0	86.7	35	56.9	1	5	248	0.00	30.131 
18:00	88.0	88.0	87.1	37	58.4	1	4	248	0.00	30.127 
18:05	88.0	88.0	86.9	36	57.7	2	4	248	0.00	30.127 
18:10	88.0	88.0	86.9	36	57.7	1	4	270	0.00	30.127 
18:15	88.2	88.2	87.2	36	57.8	1	3	270	0.00	30.123 
18:20	88.2	88.2	86.9	35	57.0	2	5	248	0.00	30.123 
18:25	88.0	88.0	86.9	36	57.7	2	4	248	0.00	30.123 
18:30	87.8	87.8	86.7	36	57.5	1	4	248	0.00	30.120 
18:35	87.6	87.6	86.4	36	57.3	1	3	248	0.00	30.120 
18:40	87.6	87.6	86.7	37	58.1	1	2	248	0.00	30.120 
18:45	87.6	87.6	86.9	38	58.8	0	4	248	0.00	30.119 
18:50	87.6	87.6	87.1	39	59.5	2	4	248	0.00	30.119 
18:55	87.2	87.2	86.4	38	58.5	1	5	248	0.00	30.119 
19:00	87.2	87.2	86.2	37	57.7	1	4	248	0.00	30.120 
19:05	87.2	87.2	86.4	38	58.5	1	4	248	0.00	30.120 
19:10	87.4	87.4	86.9	39	59.4	1	4	248	0.00	30.120 
19:15	87.4	87.4	86.7	38	58.6	1	5	270	0.00	30.114 
19:20	87.2	87.2	86.6	39	59.2	1	4	248	0.00	30.114 
19:25	87.0	87.0	86.4	39	59.0	0	2	248	0.00	30.114 
19:30	87.0	87.0	86.4	39	59.0	0	3	248	0.00	30.113 
19:35	86.7	86.7	86.3	40	59.5	0	2	248	0.00	30.113 
19:40	86.7	86.7	86.0	39	58.7	1	3	248	0.00	30.113 
19:45	86.7	86.7	86.0	39	58.7	1	3	248	0.00	30.113 
19:50	86.5	86.5	86.0	40	59.3	1	4	248	0.00	30.113 
19:55	86.3	86.3	85.6	39	58.4	1	3	248	0.00	30.113 
20:00	86.3	86.3	85.8	40	59.1	1	2	248	0.00	30.116 
20:05	86.1	86.1	85.6	40	58.9	0	1	248	0.00	30.116 
20:10	86.1	86.1	85.6	40	58.9	0	1	248	0.00	30.116 
20:15	86.1	86.1	85.8	41	59.6	0	1	248	0.00	30.108 
20:20	85.9	85.9	85.5	41	59.4	0	2	248	0.00	30.108 
20:25	85.9	85.9	85.7	42	60.1	0	1	248	0.00	30.108 
20:30	85.7	85.7	85.5	42	59.9	0	1	248	0.00	30.107 
20:35	85.5	85.5	85.5	43	60.4	0	0	---	0.00	30.107 
20:40	85.3	85.3	85.2	43	60.2	0	0	---	0.00	30.107 
20:45	84.9	84.9	84.8	43	59.9	0	1	248	0.00	30.108 
20:50	84.7	84.7	84.7	44	60.3	0	0	---	0.00	30.108 
20:55	84.3	84.3	84.5	45	60.6	0	0	---	0.00	30.108 
21:00	84.1	84.1	84.3	45	60.4	0	0	---	0.00	30.106 
21:05	83.8	83.8	83.9	45	60.2	0	0	---	0.00	30.106 
21:10	83.4	83.4	83.7	46	60.4	0	0	---	0.00	30.106 
21:15	83.0	83.0	83.4	47	60.7	0	0	---	0.00	30.105 
21:20	82.8	82.8	83.3	48	61.1	0	0	---	0.00	30.105 
21:25	82.4	82.4	82.9	48	60.7	0	0	---	0.00	30.105 
21:30	82.0	82.0	82.8	50	61.5	0	0	---	0.00	30.108 
21:35	81.6	81.6	82.3	50	61.1	0	0	---	0.00	30.108 
21:40	81.2	81.2	82.1	51	61.3	0	0	---	0.00	30.108 
21:45	80.9	80.9	81.9	52	61.6	0	0	---	0.00	30.108 
21:50	80.5	80.5	81.5	52	61.2	0	0	---	0.00	30.108 
21:55	80.3	80.3	81.4	53	61.6	0	0	---	0.00	30.108 
22:00	79.9	79.9	81.1	54	61.7	0	0	---	0.00	30.110 
22:05	79.6	79.6	80.8	54	61.5	0	0	---	0.00	30.110 
22:10	79.4	79.4	80.7	55	61.8	0	0	---	0.00	30.110 
22:15	79.0	79.0	80.3	55	61.4	0	0	---	0.00	30.110 
22:20	78.8	78.8	80.2	56	61.8	0	0	---	0.00	30.110 
22:25	78.6	78.6	80.1	57	62.1	0	0	---	0.00	30.110 
22:30	78.6	78.6	80.1	58	62.6	0	0	---	0.00	30.109 
22:35	78.5	78.5	80.0	58	62.5	0	0	---	0.00	30.109 
22:40	78.3	78.3	79.9	58	62.3	0	0	---	0.00	30.109 
22:45	78.3	78.3	79.9	58	62.3	0	0	---	0.00	30.108 
22:50	78.1	78.1	79.7	59	62.6	0	0	---	0.00	30.108 
22:55	77.9	77.9	79.6	60	62.9	0	0	---	0.00	30.108 
23:00	77.7	77.7	79.4	60	62.7	0	0	---	0.00	30.103 
23:05	77.6	77.6	79.3	61	63.1	0	0	---	0.00	30.103 
23:10	77.6	77.6	79.4	62	63.5	0	0	---	0.00	30.103 
23:15	77.6	77.6	79.4	62	63.5	0	0	---	0.00	30.095 
23:20	77.6	77.6	79.4	62	63.5	0	0	---	0.00	30.095 
23:25	77.4	77.4	79.2	62	63.3	0	0	---	0.00	30.095 
23:30	77.4	77.4	79.2	63	63.8	0	0	---	0.00	30.087 
23:35	77.2	77.2	79.0	63	63.6	0	0	---	0.00	30.087 
23:40	77.2	77.2	79.0	63	63.6	0	1	248	0.00	30.087 
23:45	77.2	77.2	79.0	64	64.1	0	0	---	0.00	30.079 
23:50	77.0	77.0	78.8	64	63.9	0	0	---	0.00	30.079 
23:55	77.0	77.0	78.8	64	63.9	0	1	248	0.00	30.079 

CoCoRaHS
IN-AL-39
A2 Web Hosting
Creative Commons License
GoDaddy
search engine by freefind advanced

loaded 2018-11-20 15:28:56 • last modified 2010-11-18 10:43:29
Privacy PolicyDisclaimer
• wx.awcolley.com is powered by PmWiki v.2002016 •
• all content (unless otherwise noted) © 2018 A W Colley